sensor_id;sensor_type;location;lat;lon;timestamp;pressure;altitude;pressure_sealevel;temperature;humidity
76753;BME280;65687;51.308;16.916;2023-09-18T00:00:49;99650.20;;;16.81;84.80
76753;BME280;65687;51.308;16.916;2023-09-18T00:06:10;99647.28;;;16.80;84.70
76753;BME280;65687;51.308;16.916;2023-09-18T00:11:12;99655.21;;;16.78;84.42
76753;BME280;65687;51.308;16.916;2023-09-18T00:16:13;99654.92;;;16.75;84.61
76753;BME280;65687;51.308;16.916;2023-09-18T00:21:14;99647.58;;;16.70;84.80
76753;BME280;65687;51.308;16.916;2023-09-18T00:26:15;99641.77;;;16.66;84.80
76753;BME280;65687;51.308;16.916;2023-09-18T00:31:16;99640.38;;;16.64;85.50
76753;BME280;65687;51.308;16.916;2023-09-18T00:36:17;99635.27;;;16.65;85.84
76753;BME280;65687;51.308;16.916;2023-09-18T00:41:17;99635.99;;;16.70;85.98
76753;BME280;65687;51.308;16.916;2023-09-18T00:46:18;99635.15;;;16.67;85.26
76753;BME280;65687;51.308;16.916;2023-09-18T00:51:20;99631.41;;;16.62;85.23
76753;BME280;65687;51.308;16.916;2023-09-18T00:56:21;99631.52;;;16.57;85.32
76753;BME280;65687;51.308;16.916;2023-09-18T01:01:42;99626.52;;;16.55;85.71
76753;BME280;65687;51.308;16.916;2023-09-18T01:06:43;99625.96;;;16.54;85.46
76753;BME280;65687;51.308;16.916;2023-09-18T01:12:06;99621.09;;;16.51;85.39
76753;BME280;65687;51.308;16.916;2023-09-18T01:17:10;99620.39;;;16.46;86.09
76753;BME280;65687;51.308;16.916;2023-09-18T01:22:13;99613.42;;;16.43;85.79
76753;BME280;65687;51.308;16.916;2023-09-18T01:27:16;99611.56;;;16.43;86.28
76753;BME280;65687;51.308;16.916;2023-09-18T01:32:18;99606.55;;;16.45;86.81
76753;BME280;65687;51.308;16.916;2023-09-18T01:37:20;99600.19;;;16.48;86.74
76753;BME280;65687;51.308;16.916;2023-09-18T01:42:22;99592.80;;;16.47;86.73
76753;BME280;65687;51.308;16.916;2023-09-18T01:47:23;99587.81;;;16.46;86.63
76753;BME280;65687;51.308;16.916;2023-09-18T01:52:24;99587.77;;;16.44;86.62
76753;BME280;65687;51.308;16.916;2023-09-18T01:57:25;99583.17;;;16.45;86.79
76753;BME280;65687;51.308;16.916;2023-09-18T02:02:27;99570.66;;;16.48;87.13
76753;BME280;65687;51.308;16.916;2023-09-18T02:07:27;99570.94;;;16.51;86.84
76753;BME280;65687;51.308;16.916;2023-09-18T02:12:28;99568.04;;;16.50;86.73
76753;BME280;65687;51.308;16.916;2023-09-18T02:17:30;99565.45;;;16.50;86.72
76753;BME280;65687;51.308;16.916;2023-09-18T02:22:33;99560.41;;;16.52;87.30
76753;BME280;65687;51.308;16.916;2023-09-18T02:27:34;99554.45;;;16.57;87.12
76753;BME280;65687;51.308;16.916;2023-09-18T02:32:36;99557.94;;;16.67;86.66
76753;BME280;65687;51.308;16.916;2023-09-18T02:37:37;99565.70;;;16.70;86.64
76753;BME280;65687;51.308;16.916;2023-09-18T02:42:38;99564.25;;;16.77;86.38
76753;BME280;65687;51.308;16.916;2023-09-18T02:47:39;99559.74;;;16.84;86.20
76753;BME280;65687;51.308;16.916;2023-09-18T02:52:41;99556.34;;;16.89;85.76
76753;BME280;65687;51.308;16.916;2023-09-18T02:57:43;99551.95;;;16.95;85.25
76753;BME280;65687;51.308;16.916;2023-09-18T03:02:44;99556.17;;;16.94;85.13
76753;BME280;65687;51.308;16.916;2023-09-18T03:07:45;99550.63;;;16.97;84.84
76753;BME280;65687;51.308;16.916;2023-09-18T03:12:48;99545.30;;;16.96;84.90
76753;BME280;65687;51.308;16.916;2023-09-18T03:17:52;99547.58;;;16.92;84.78
76753;BME280;65687;51.308;16.916;2023-09-18T03:22:55;99546.39;;;16.92;84.92
76753;BME280;65687;51.308;16.916;2023-09-18T03:27:57;99541.65;;;16.93;84.83
76753;BME280;65687;51.308;16.916;2023-09-18T03:32:58;99535.95;;;16.91;84.84
76753;BME280;65687;51.308;16.916;2023-09-18T03:37:59;99529.48;;;16.92;84.66
76753;BME280;65687;51.308;16.916;2023-09-18T03:43:00;99516.51;;;16.87;84.97
76753;BME280;65687;51.308;16.916;2023-09-18T03:48:01;99514.31;;;16.83;84.91
76753;BME280;65687;51.308;16.916;2023-09-18T03:53:02;99506.61;;;16.82;84.86
76753;BME280;65687;51.308;16.916;2023-09-18T03:58:04;99507.38;;;16.84;84.88
76753;BME280;65687;51.308;16.916;2023-09-18T04:03:05;99503.19;;;16.86;84.50
76753;BME280;65687;51.308;16.916;2023-09-18T04:08:06;99500.66;;;16.87;84.52
76753;BME280;65687;51.308;16.916;2023-09-18T04:13:07;99502.71;;;16.87;84.37
76753;BME280;65687;51.308;16.916;2023-09-18T04:18:09;99505.45;;;16.88;84.27
76753;BME280;65687;51.308;16.916;2023-09-18T04:23:26;99496.83;;;16.85;84.49
76753;BME280;65687;51.308;16.916;2023-09-18T04:28:27;99490.20;;;16.81;84.34
76753;BME280;65687;51.308;16.916;2023-09-18T04:33:28;99486.98;;;16.81;84.36
76753;BME280;65687;51.308;16.916;2023-09-18T04:38:29;99481.95;;;16.79;84.50
76753;BME280;65687;51.308;16.916;2023-09-18T04:43:30;99470.52;;;16.74;84.62
76753;BME280;65687;51.308;16.916;2023-09-18T04:48:32;99465.51;;;16.67;84.81
76753;BME280;65687;51.308;16.916;2023-09-18T04:53:33;99462.18;;;16.65;84.89
76753;BME280;65687;51.308;16.916;2023-09-18T04:58:34;99460.70;;;16.67;84.79
76753;BME280;65687;51.308;16.916;2023-09-18T05:03:38;99463.59;;;16.71;84.80
76753;BME280;65687;51.308;16.916;2023-09-18T05:08:39;99468.98;;;16.74;84.63
76753;BME280;65687;51.308;16.916;2023-09-18T05:13:40;99468.52;;;16.70;84.74
76753;BME280;65687;51.308;16.916;2023-09-18T05:18:41;99460.52;;;16.66;84.79
76753;BME280;65687;51.308;16.916;2023-09-18T05:23:42;99459.67;;;16.61;85.02
76753;BME280;65687;51.308;16.916;2023-09-18T05:28:44;99456.96;;;16.58;85.13
76753;BME280;65687;51.308;16.916;2023-09-18T05:33:45;99452.36;;;16.59;85.22
76753;BME280;65687;51.308;16.916;2023-09-18T05:38:47;99451.67;;;16.58;85.10
76753;BME280;65687;51.308;16.916;2023-09-18T05:43:48;99449.77;;;16.61;85.18
76753;BME280;65687;51.308;16.916;2023-09-18T05:48:49;99450.20;;;16.63;85.15
76753;BME280;65687;51.308;16.916;2023-09-18T05:53:50;99449.23;;;16.65;85.23
76753;BME280;65687;51.308;16.916;2023-09-18T05:58:51;99436.71;;;16.68;85.17
76753;BME280;65687;51.308;16.916;2023-09-18T06:03:53;99433.61;;;16.71;85.18
76753;BME280;65687;51.308;16.916;2023-09-18T06:08:55;99427.42;;;16.76;85.03
76753;BME280;65687;51.308;16.916;2023-09-18T06:13:56;99423.66;;;16.80;84.95
76753;BME280;65687;51.308;16.916;2023-09-18T06:18:57;99416.90;;;16.87;84.82
76753;BME280;65687;51.308;16.916;2023-09-18T06:24:02;99421.89;;;16.93;84.70
76753;BME280;65687;51.308;16.916;2023-09-18T06:29:03;99421.48;;;17.02;84.70
76753;BME280;65687;51.308;16.916;2023-09-18T06:34:05;99415.59;;;17.15;84.27
76753;BME280;65687;51.308;16.916;2023-09-18T06:39:06;99417.73;;;17.28;84.01
76753;BME280;65687;51.308;16.916;2023-09-18T06:44:08;99414.52;;;17.41;83.75
76753;BME280;65687;51.308;16.916;2023-09-18T06:49:09;99413.16;;;17.52;83.32
76753;BME280;65687;51.308;16.916;2023-09-18T06:54:10;99412.76;;;17.66;82.92
76753;BME280;65687;51.308;16.916;2023-09-18T06:59:11;99408.19;;;17.79;82.61
76753;BME280;65687;51.308;16.916;2023-09-18T07:04:13;99401.05;;;17.92;82.46
76753;BME280;65687;51.308;16.916;2023-09-18T07:09:14;99406.39;;;18.05;82.25
76753;BME280;65687;51.308;16.916;2023-09-18T07:14:15;99413.10;;;18.19;81.60
76753;BME280;65687;51.308;16.916;2023-09-18T07:19:16;99411.87;;;18.30;81.72
76753;BME280;65687;51.308;16.916;2023-09-18T07:24:18;99408.38;;;18.47;81.13
76753;BME280;65687;51.308;16.916;2023-09-18T07:29:21;99401.20;;;18.65;80.72
76753;BME280;65687;51.308;16.916;2023-09-18T07:34:22;99395.67;;;18.83;80.30
76753;BME280;65687;51.308;16.916;2023-09-18T07:39:24;99392.86;;;19.01;79.38
76753;BME280;65687;51.308;16.916;2023-09-18T07:44:25;99386.98;;;19.21;78.93
76753;BME280;65687;51.308;16.916;2023-09-18T07:49:26;99382.26;;;19.39;78.41
76753;BME280;65687;51.308;16.916;2023-09-18T07:54:30;99379.98;;;19.58;78.14
76753;BME280;65687;51.308;16.916;2023-09-18T07:59:31;99381.24;;;19.85;77.72
76753;BME280;65687;51.308;16.916;2023-09-18T08:04:33;99373.05;;;20.13;76.53
76753;BME280;65687;51.308;16.916;2023-09-18T08:09:35;99372.27;;;20.34;76.19
76753;BME280;65687;51.308;16.916;2023-09-18T08:14:39;99365.98;;;20.47;75.03
76753;BME280;65687;51.308;16.916;2023-09-18T08:19:40;99359.70;;;20.59;74.39
76753;BME280;65687;51.308;16.916;2023-09-18T08:24:41;99354.35;;;20.78;74.97
76753;BME280;65687;51.308;16.916;2023-09-18T08:29:45;99354.69;;;21.00;73.78
76753;BME280;65687;51.308;16.916;2023-09-18T08:34:46;99348.20;;;21.23;72.97
76753;BME280;65687;51.308;16.916;2023-09-18T08:39:47;99341.17;;;21.49;72.90
76753;BME280;65687;51.308;16.916;2023-09-18T08:44:51;99336.67;;;21.73;72.10
76753;BME280;65687;51.308;16.916;2023-09-18T08:49:54;99327.83;;;21.95;71.45
76753;BME280;65687;51.308;16.916;2023-09-18T08:54:56;99319.45;;;22.14;71.46
76753;BME280;65687;51.308;16.916;2023-09-18T08:59:58;99309.27;;;22.27;69.84
76753;BME280;65687;51.308;16.916;2023-09-18T09:05:02;99305.32;;;22.48;69.55
76753;BME280;65687;51.308;16.916;2023-09-18T09:10:04;99309.10;;;22.67;67.42
76753;BME280;65687;51.308;16.916;2023-09-18T09:15:06;99310.48;;;22.86;67.81
76753;BME280;65687;51.308;16.916;2023-09-18T09:20:11;99310.59;;;23.01;68.04
76753;BME280;65687;51.308;16.916;2023-09-18T09:25:27;99313.05;;;23.10;66.38
76753;BME280;65687;51.308;16.916;2023-09-18T09:30:29;99307.64;;;23.26;66.79
76753;BME280;65687;51.308;16.916;2023-09-18T09:35:33;99302.00;;;23.36;67.03
76753;BME280;65687;51.308;16.916;2023-09-18T09:40:40;99294.83;;;23.48;65.49
76753;BME280;65687;51.308;16.916;2023-09-18T09:45:42;99284.20;;;23.59;65.46
76753;BME280;65687;51.308;16.916;2023-09-18T09:50:46;99275.27;;;23.69;64.34
76753;BME280;65687;51.308;16.916;2023-09-18T09:55:54;99271.35;;;23.86;64.25
76753;BME280;65687;51.308;16.916;2023-09-18T10:00:58;99265.88;;;24.07;63.50
76753;BME280;65687;51.308;16.916;2023-09-18T10:06:04;99266.45;;;24.23;62.08
76753;BME280;65687;51.308;16.916;2023-09-18T10:11:07;99259.73;;;24.37;61.75
76753;BME280;65687;51.308;16.916;2023-09-18T10:16:11;99255.56;;;24.58;61.04
76753;BME280;65687;51.308;16.916;2023-09-18T10:21:22;99252.45;;;24.74;59.69
76753;BME280;65687;51.308;16.916;2023-09-18T10:26:35;99255.71;;;24.88;59.07
76753;BME280;65687;51.308;16.916;2023-09-18T10:31:41;99256.05;;;25.04;60.04
76753;BME280;65687;51.308;16.916;2023-09-18T10:36:48;99259.98;;;25.19;59.26
76753;BME280;65687;51.308;16.916;2023-09-18T10:41:54;99245.58;;;25.34;59.41
76753;BME280;65687;51.308;16.916;2023-09-18T10:46:56;99246.20;;;25.49;58.54
76753;BME280;65687;51.308;16.916;2023-09-18T10:51:57;99248.59;;;25.61;57.89
76753;BME280;65687;51.308;16.916;2023-09-18T10:57:00;99247.18;;;25.64;56.54
76753;BME280;65687;51.308;16.916;2023-09-18T11:02:03;99236.42;;;25.73;56.14
76753;BME280;65687;51.308;16.916;2023-09-18T11:07:07;99229.63;;;25.82;56.66
76753;BME280;65687;51.308;16.916;2023-09-18T11:12:11;99216.08;;;25.92;56.75
76753;BME280;65687;51.308;16.916;2023-09-18T11:17:42;99213.29;;;25.93;55.61
76753;BME280;65687;51.308;16.916;2023-09-18T11:22:49;99208.80;;;25.92;55.46
76753;BME280;65687;51.308;16.916;2023-09-18T11:27:56;99192.16;;;25.95;54.78
76753;BME280;65687;51.308;16.916;2023-09-18T11:32:57;99192.14;;;25.97;55.00
76753;BME280;65687;51.308;16.916;2023-09-18T11:38:07;99184.00;;;25.99;55.36
76753;BME280;65687;51.308;16.916;2023-09-18T11:48:27;99166.76;;;25.92;53.90
76753;BME280;65687;51.308;16.916;2023-09-18T11:53:35;99156.89;;;25.93;54.52
76753;BME280;65687;51.308;16.916;2023-09-18T11:58:48;99157.90;;;25.95;53.51
76753;BME280;65687;51.308;16.916;2023-09-18T12:03:54;99151.13;;;25.97;53.29
76753;BME280;65687;51.308;16.916;2023-09-18T12:08:55;99147.83;;;26.01;53.02
76753;BME280;65687;51.308;16.916;2023-09-18T12:13:57;99139.15;;;26.02;53.80
76753;BME280;65687;51.308;16.916;2023-09-18T12:18:58;99134.61;;;26.07;53.42
76753;BME280;65687;51.308;16.916;2023-09-18T12:23:59;99126.30;;;26.08;53.24
76753;BME280;65687;51.308;16.916;2023-09-18T12:29:01;99116.10;;;26.08;51.44
76753;BME280;65687;51.308;16.916;2023-09-18T12:34:02;99115.75;;;26.07;51.38
76753;BME280;65687;51.308;16.916;2023-09-18T12:39:03;99107.23;;;26.11;52.03
76753;BME280;65687;51.308;16.916;2023-09-18T12:44:05;99105.42;;;26.18;51.22
76753;BME280;65687;51.308;16.916;2023-09-18T12:49:22;99099.53;;;26.18;50.45
76753;BME280;65687;51.308;16.916;2023-09-18T12:54:44;99094.02;;;26.17;50.27
76753;BME280;65687;51.308;16.916;2023-09-18T12:59:56;99083.29;;;26.17;50.29
76753;BME280;65687;51.308;16.916;2023-09-18T13:04:57;99075.68;;;26.16;50.24
76753;BME280;65687;51.308;16.916;2023-09-18T13:10:00;99077.68;;;26.24;50.30
76753;BME280;65687;51.308;16.916;2023-09-18T13:15:02;99079.68;;;26.33;50.99
76753;BME280;65687;51.308;16.916;2023-09-18T13:30:23;99069.13;;;26.33;50.64
76753;BME280;65687;51.308;16.916;2023-09-18T13:35:24;99074.18;;;26.31;50.37
76753;BME280;65687;51.308;16.916;2023-09-18T13:40:26;99063.66;;;26.24;51.12
76753;BME280;65687;51.308;16.916;2023-09-18T13:45:27;99066.66;;;26.17;51.95
76753;BME280;65687;51.308;16.916;2023-09-18T13:50:29;99065.71;;;26.09;52.14
76753;BME280;65687;51.308;16.916;2023-09-18T13:55:31;99066.44;;;26.05;52.68
76753;BME280;65687;51.308;16.916;2023-09-18T14:00:32;99061.33;;;25.97;52.41
76753;BME280;65687;51.308;16.916;2023-09-18T14:05:33;99062.63;;;25.87;52.63
76753;BME280;65687;51.308;16.916;2023-09-18T14:10:34;99056.31;;;25.78;52.29
76753;BME280;65687;51.308;16.916;2023-09-18T14:15:35;99050.69;;;25.69;51.97
76753;BME280;65687;51.308;16.916;2023-09-18T14:20:37;99045.90;;;25.61;52.23
76753;BME280;65687;51.308;16.916;2023-09-18T14:25:38;99044.01;;;25.55;53.18
76753;BME280;65687;51.308;16.916;2023-09-18T14:30:39;99039.36;;;25.54;53.66
76753;BME280;65687;51.308;16.916;2023-09-18T14:35:40;99032.45;;;25.53;54.16
76753;BME280;65687;51.308;16.916;2023-09-18T14:40:41;99019.63;;;25.57;54.31
76753;BME280;65687;51.308;16.916;2023-09-18T14:45:43;99017.38;;;25.61;54.30
76753;BME280;65687;51.308;16.916;2023-09-18T14:50:43;99005.23;;;25.64;54.10
76753;BME280;65687;51.308;16.916;2023-09-18T14:55:44;99005.55;;;25.66;54.07
76753;BME280;65687;51.308;16.916;2023-09-18T15:00:45;99000.70;;;25.69;54.62
76753;BME280;65687;51.308;16.916;2023-09-18T15:05:46;98992.40;;;25.68;54.40
76753;BME280;65687;51.308;16.916;2023-09-18T15:10:47;98987.56;;;25.67;54.31
76753;BME280;65687;51.308;16.916;2023-09-18T15:15:48;98987.41;;;25.64;54.08
76753;BME280;65687;51.308;16.916;2023-09-18T15:20:49;98989.88;;;25.59;53.82
76753;BME280;65687;51.308;16.916;2023-09-18T15:25:55;98983.86;;;25.52;54.04
76753;BME280;65687;51.308;16.916;2023-09-18T15:30:56;98980.83;;;25.45;54.41
76753;BME280;65687;51.308;16.916;2023-09-18T15:35:57;98979.99;;;25.40;54.50
76753;BME280;65687;51.308;16.916;2023-09-18T15:40:58;98982.27;;;25.36;54.72
76753;BME280;65687;51.308;16.916;2023-09-18T15:45:59;98977.83;;;25.31;54.61
76753;BME280;65687;51.308;16.916;2023-09-18T15:51:00;98969.04;;;25.26;54.63
76753;BME280;65687;51.308;16.916;2023-09-18T15:56:01;98966.00;;;25.17;54.08
76753;BME280;65687;51.308;16.916;2023-09-18T16:01:02;98966.58;;;25.10;53.67
76753;BME280;65687;51.308;16.916;2023-09-18T16:06:05;98966.12;;;25.01;54.25
76753;BME280;65687;51.308;16.916;2023-09-18T16:11:07;98964.97;;;24.89;54.70
76753;BME280;65687;51.308;16.916;2023-09-18T16:16:07;98960.70;;;24.79;54.97
76753;BME280;65687;51.308;16.916;2023-09-18T16:21:08;98963.03;;;24.67;56.39
76753;BME280;65687;51.308;16.916;2023-09-18T16:26:09;98964.34;;;24.47;58.01
76753;BME280;65687;51.308;16.916;2023-09-18T16:31:10;98961.84;;;24.29;58.72
76753;BME280;65687;51.308;16.916;2023-09-18T16:36:11;98958.58;;;24.14;58.96
76753;BME280;65687;51.308;16.916;2023-09-18T16:41:12;98962.59;;;24.02;59.95
76753;BME280;65687;51.308;16.916;2023-09-18T16:46:13;98957.63;;;23.88;60.44
76753;BME280;65687;51.308;16.916;2023-09-18T16:51:14;98954.39;;;23.68;60.97
76753;BME280;65687;51.308;16.916;2023-09-18T16:56:15;98950.61;;;23.56;61.08
76753;BME280;65687;51.308;16.916;2023-09-18T17:01:16;98955.45;;;23.50;60.85
76753;BME280;65687;51.308;16.916;2023-09-18T17:06:17;98956.63;;;23.41;62.11
76753;BME280;65687;51.308;16.916;2023-09-18T17:11:18;98955.78;;;23.32;62.09
76753;BME280;65687;51.308;16.916;2023-09-18T17:16:19;98951.83;;;23.28;61.09
76753;BME280;65687;51.308;16.916;2023-09-18T17:21:23;98946.65;;;23.23;61.70
76753;BME280;65687;51.308;16.916;2023-09-18T17:26:24;98942.67;;;23.18;61.75
76753;BME280;65687;51.308;16.916;2023-09-18T17:31:27;98945.61;;;23.15;61.24
76753;BME280;65687;51.308;16.916;2023-09-18T17:36:28;98947.34;;;23.11;61.51
76753;BME280;65687;51.308;16.916;2023-09-18T17:41:30;98951.97;;;22.98;63.47
76753;BME280;65687;51.308;16.916;2023-09-18T17:46:30;98953.30;;;22.75;64.17
76753;BME280;65687;51.308;16.916;2023-09-18T17:51:31;98953.10;;;22.65;63.29
76753;BME280;65687;51.308;16.916;2023-09-18T17:56:34;98957.06;;;22.67;63.23
76753;BME280;65687;51.308;16.916;2023-09-18T18:01:35;98956.70;;;22.63;63.34
76753;BME280;65687;51.308;16.916;2023-09-18T18:06:36;98952.90;;;22.56;64.04
76753;BME280;65687;51.308;16.916;2023-09-18T18:11:37;98954.61;;;22.55;64.10
76753;BME280;65687;51.308;16.916;2023-09-18T18:16:38;98950.30;;;22.49;64.07
76753;BME280;65687;51.308;16.916;2023-09-18T18:21:40;98946.33;;;22.47;63.53
76753;BME280;65687;51.308;16.916;2023-09-18T18:26:41;98941.34;;;22.49;63.59
76753;BME280;65687;51.308;16.916;2023-09-18T18:31:42;98939.11;;;22.47;64.09
76753;BME280;65687;51.308;16.916;2023-09-18T18:36:44;98938.56;;;22.39;64.77
76753;BME280;65687;51.308;16.916;2023-09-18T18:41:45;98936.27;;;22.24;65.68
76753;BME280;65687;51.308;16.916;2023-09-18T18:46:46;98935.67;;;22.05;66.45
76753;BME280;65687;51.308;16.916;2023-09-18T18:51:47;98944.14;;;21.84;66.79
76753;BME280;65687;51.308;16.916;2023-09-18T18:56:50;98945.33;;;21.85;66.39
76753;BME280;65687;51.308;16.916;2023-09-18T19:01:52;98945.19;;;21.88;66.12
76753;BME280;65687;51.308;16.916;2023-09-18T19:06:53;98949.15;;;21.88;66.23
76753;BME280;65687;51.308;16.916;2023-09-18T19:11:54;98951.91;;;21.89;65.94
76753;BME280;65687;51.308;16.916;2023-09-18T19:16:55;98954.17;;;21.95;65.88
76753;BME280;65687;51.308;16.916;2023-09-18T19:21:56;98955.38;;;21.92;66.65
76753;BME280;65687;51.308;16.916;2023-09-18T19:26:57;98949.88;;;21.68;68.28
76753;BME280;65687;51.308;16.916;2023-09-18T19:31:58;98952.36;;;21.53;68.43
76753;BME280;65687;51.308;16.916;2023-09-18T19:36:59;98945.31;;;21.51;68.10
76753;BME280;65687;51.308;16.916;2023-09-18T19:42:00;98929.85;;;21.53;67.81
76753;BME280;65687;51.308;16.916;2023-09-18T19:47:03;98926.26;;;21.56;67.71
76753;BME280;65687;51.308;16.916;2023-09-18T19:52:05;98923.87;;;21.57;67.72
76753;BME280;65687;51.308;16.916;2023-09-18T19:57:06;98927.66;;;21.58;67.69
76753;BME280;65687;51.308;16.916;2023-09-18T20:02:07;98928.51;;;21.57;68.32
76753;BME280;65687;51.308;16.916;2023-09-18T20:07:09;98922.07;;;21.44;69.26
76753;BME280;65687;51.308;16.916;2023-09-18T20:12:10;98922.34;;;21.34;69.54
76753;BME280;65687;51.308;16.916;2023-09-18T20:17:11;98918.83;;;21.25;70.11
76753;BME280;65687;51.308;16.916;2023-09-18T20:22:11;98914.13;;;21.18;70.36
76753;BME280;65687;51.308;16.916;2023-09-18T20:27:12;98913.21;;;21.15;70.07
76753;BME280;65687;51.308;16.916;2023-09-18T20:32:13;98915.23;;;21.09;70.98
76753;BME280;65687;51.308;16.916;2023-09-18T20:37:15;98917.71;;;20.98;71.11
76753;BME280;65687;51.308;16.916;2023-09-18T20:42:16;98920.77;;;20.93;71.57
76753;BME280;65687;51.308;16.916;2023-09-18T20:47:16;98922.61;;;20.88;71.91
76753;BME280;65687;51.308;16.916;2023-09-18T20:52:18;98922.38;;;20.82;72.31
76753;BME280;65687;51.308;16.916;2023-09-18T20:57:19;98917.50;;;20.74;73.01
76753;BME280;65687;51.308;16.916;2023-09-18T21:02:20;98918.60;;;20.64;73.53
76753;BME280;65687;51.308;16.916;2023-09-18T21:07:22;98913.41;;;20.57;73.91
76753;BME280;65687;51.308;16.916;2023-09-18T21:12:22;98913.70;;;20.55;73.98
76753;BME280;65687;51.308;16.916;2023-09-18T21:17:25;98916.02;;;20.46;74.54
76753;BME280;65687;51.308;16.916;2023-09-18T21:22:26;98924.73;;;20.42;74.99
76753;BME280;65687;51.308;16.916;2023-09-18T21:27:28;98931.73;;;20.41;74.58
76753;BME280;65687;51.308;16.916;2023-09-18T21:32:29;98930.03;;;20.41;74.66
76753;BME280;65687;51.308;16.916;2023-09-18T21:37:29;98936.95;;;20.32;75.44
76753;BME280;65687;51.308;16.916;2023-09-18T21:42:30;98968.03;;;20.34;74.60
76753;BME280;65687;51.308;16.916;2023-09-18T21:47:31;98970.50;;;20.41;73.66
76753;BME280;65687;51.308;16.916;2023-09-18T21:52:33;98970.95;;;20.49;73.04
76753;BME280;65687;51.308;16.916;2023-09-18T21:57:34;98961.36;;;20.53;72.58
76753;BME280;65687;51.308;16.916;2023-09-18T22:02:35;98963.42;;;20.51;72.02
76753;BME280;65687;51.308;16.916;2023-09-18T22:07:36;98949.10;;;20.45;71.83
76753;BME280;65687;51.308;16.916;2023-09-18T22:12:37;98944.57;;;20.37;72.05
76753;BME280;65687;51.308;16.916;2023-09-18T22:17:38;98951.81;;;20.29;72.31
76753;BME280;65687;51.308;16.916;2023-09-18T22:22:41;98944.24;;;20.26;72.45
76753;BME280;65687;51.308;16.916;2023-09-18T22:27:42;98938.36;;;20.23;72.75
76753;BME280;65687;51.308;16.916;2023-09-18T22:32:44;98930.78;;;20.19;72.84
76753;BME280;65687;51.308;16.916;2023-09-18T22:37:45;98931.23;;;20.15;73.12
76753;BME280;65687;51.308;16.916;2023-09-18T22:59:09;98921.75;;;19.84;75.04
76753;BME280;65687;51.308;16.916;2023-09-18T23:04:10;98925.65;;;19.80;75.25
76753;BME280;65687;51.308;16.916;2023-09-18T23:09:14;98928.19;;;19.78;74.83
76753;BME280;65687;51.308;16.916;2023-09-18T23:14:15;98938.59;;;19.75;75.09
76753;BME280;65687;51.308;16.916;2023-09-18T23:19:18;98937.35;;;19.71;75.69
76753;BME280;65687;51.308;16.916;2023-09-18T23:24:22;98942.25;;;19.68;75.51
76753;BME280;65687;51.308;16.916;2023-09-18T23:29:23;98938.90;;;19.60;75.72
76753;BME280;65687;51.308;16.916;2023-09-18T23:34:27;98945.80;;;19.52;76.13
76753;BME280;65687;51.308;16.916;2023-09-18T23:39:27;98957.80;;;19.44;76.46
76753;BME280;65687;51.308;16.916;2023-09-18T23:44:30;98966.40;;;19.35;76.72
76753;BME280;65687;51.308;16.916;2023-09-18T23:49:33;98967.83;;;19.28;77.22
76753;BME280;65687;51.308;16.916;2023-09-18T23:54:36;98976.73;;;19.17;77.87
76753;BME280;65687;51.308;16.916;2023-09-18T23:59:37;98977.48;;;19.11;78.44
